createdAt,value
2023-02-20T00:00:42.236Z,101789.00
2023-02-20T00:03:09.058Z,101776.69
2023-02-20T00:05:35.474Z,101766.28
2023-02-20T00:08:01.874Z,101764.78
2023-02-20T00:10:28.678Z,101763.09
2023-02-20T00:12:55.110Z,101760.75
2023-02-20T00:15:22.810Z,101750.53
2023-02-20T00:17:49.504Z,101752.66
2023-02-20T00:20:21.119Z,101758.63
2023-02-20T00:22:48.277Z,101752.66
2023-02-20T00:25:18.922Z,101748.84
2023-02-20T00:27:45.456Z,101753.50
2023-02-20T00:30:16.315Z,101741.78
2023-02-20T00:32:42.751Z,101745.84
2023-02-20T00:35:10.875Z,101751.81
2023-02-20T00:37:38.529Z,101744.13
2023-02-20T00:40:06.282Z,101747.34
2023-02-20T00:42:32.685Z,101745.66
2023-02-20T00:44:59.081Z,101742.44
2023-02-20T00:47:25.589Z,101735.22
2023-02-20T00:49:52.000Z,101730.75
2023-02-20T00:52:22.496Z,101725.66
2023-02-20T00:54:49.461Z,101728.81
2023-02-20T00:57:15.877Z,101726.72
2023-02-20T00:59:43.854Z,101711.19
2023-02-20T01:02:11.133Z,101714.16
2023-02-20T01:04:37.525Z,101715.84
2023-02-20T01:07:03.939Z,101704.56
2023-02-20T01:09:31.562Z,101705.22
2023-02-20T01:11:57.961Z,101708.84
2023-02-20T01:14:25.147Z,101714.16
2023-02-20T01:16:53.054Z,101709.69
2023-02-20T01:19:21.411Z,101698.41
2023-02-20T01:21:48.729Z,101690.78
2023-02-20T01:24:16.637Z,101698.00
2023-02-20T01:26:45.007Z,101689.69
2023-02-20T01:29:11.466Z,101681.84
2023-02-20T01:31:38.351Z,101674.19
2023-02-20T01:34:08.432Z,101671.03
2023-02-20T01:36:34.837Z,101659.53
2023-02-20T01:39:01.854Z,101647.41
2023-02-20T01:41:28.256Z,101649.75
2023-02-20T01:43:55.426Z,101641.44
2023-02-20T01:46:27.983Z,101643.16
2023-02-20T01:49:11.625Z,101640.59
2023-02-20T01:51:44.100Z,101635.06
2023-02-20T01:54:15.665Z,101637.41
2023-02-20T01:56:45.558Z,101631.69
2023-02-20T01:59:12.717Z,101623.16
2023-02-20T02:01:39.481Z,101616.16
2023-02-20T02:04:09.962Z,101615.94
2023-02-20T02:06:40.719Z,101606.13
2023-02-20T02:09:20.576Z,101597.19
2023-02-20T02:11:50.522Z,101591.03
2023-02-20T02:14:16.964Z,101595.25
2023-02-20T02:16:53.393Z,101595.91
2023-02-20T02:19:48.345Z,101588.84
2023-02-20T02:22:56.337Z,101588.41
2023-02-20T02:25:48.382Z,101585.84
2023-02-20T02:28:39.679Z,101584.53
2023-02-20T02:31:31.735Z,101584.91
2023-02-20T02:34:28.866Z,101588.53
2023-02-20T02:37:01.592Z,101578.25
2023-02-20T02:39:47.886Z,101569.94
2023-02-20T02:42:35.634Z,101564.16
2023-02-20T02:59:00.601Z,101545.75
2023-02-20T03:01:28.594Z,101538.09
2023-02-20T03:03:58.157Z,101544.19
2023-02-20T03:06:30.565Z,101542.69
2023-02-20T03:09:02.575Z,101533.69
2023-02-20T03:11:32.115Z,101535.41
2023-02-20T03:14:25.449Z,101526.84
2023-02-20T03:17:33.067Z,101530.09
2023-02-20T03:20:02.876Z,101516.28
2023-02-20T03:22:47.863Z,101512.78
2023-02-20T03:25:31.033Z,101508.09
2023-02-20T03:28:03.553Z,101502.78
2023-02-20T03:30:54.890Z,101491.47
2023-02-20T03:33:48.390Z,101475.75
2023-02-20T03:36:38.482Z,101466.53
2023-02-20T03:39:28.453Z,101470.13
2023-02-20T03:42:15.150Z,101471.81
2023-02-20T03:44:47.045Z,101473.50
2023-02-20T03:47:19.050Z,101473.66
2023-02-20T03:49:49.608Z,101474.75
2023-02-20T03:52:17.605Z,101466.59
2023-02-20T03:54:44.201Z,101486.19
2023-02-20T03:57:19.704Z,101481.66
2023-02-20T03:59:53.878Z,101486.94
2023-02-20T04:02:26.057Z,101487.31
2023-02-20T04:04:55.864Z,101475.72
2023-02-20T04:07:36.748Z,101472.16
2023-02-20T04:10:07.233Z,101477.88
2023-02-20T04:12:42.470Z,101482.97
2023-02-20T04:15:12.454Z,101474.81
2023-02-20T04:17:47.283Z,101462.66
2023-02-20T04:20:14.726Z,101449.56
2023-02-20T04:22:50.914Z,101454.88
2023-02-20T04:25:40.404Z,101453.34
2023-02-20T04:28:07.208Z,101451.34
2023-02-20T04:30:44.532Z,101443.03
2023-02-20T04:33:13.555Z,101439.09
2023-02-20T04:35:40.336Z,101425.22
2023-02-20T04:38:08.686Z,101413.88
2023-02-20T04:40:36.269Z,101416.81
2023-02-20T04:43:02.705Z,101410.09
2023-02-20T04:45:29.803Z,101412.88
2023-02-20T04:47:56.557Z,101414.56
2023-02-20T04:50:27.480Z,101414.00
2023-02-20T04:52:53.950Z,101419.31
2023-02-20T04:55:21.016Z,101416.69
2023-02-20T04:57:49.891Z,101416.69
2023-02-20T05:00:18.566Z,101399.72
2023-02-20T05:02:45.182Z,101385.69
2023-02-20T05:05:18.721Z,101380.41
2023-02-20T05:07:45.574Z,101374.88
2023-02-20T05:10:17.670Z,101362.94
2023-02-20T05:12:44.285Z,101349.19
2023-02-20T05:15:10.718Z,101344.09
2023-02-20T05:17:37.545Z,101341.09
2023-02-20T05:20:05.408Z,101351.38
2023-02-20T05:22:31.835Z,101351.72
2023-02-20T05:24:58.526Z,101349.22
2023-02-20T05:27:26.238Z,101352.59
2023-02-20T05:29:55.540Z,101349.97
2023-02-20T05:32:23.714Z,101342.56
2023-02-20T05:34:50.417Z,101338.63
2023-02-20T05:37:18.851Z,101343.34
2023-02-20T05:39:46.042Z,101340.56
2023-02-20T05:42:13.250Z,101342.88
2023-02-20T05:44:39.913Z,101349.13
2023-02-20T05:47:07.697Z,101343.69
2023-02-20T05:49:35.122Z,101330.66
2023-02-20T05:52:02.865Z,101328.72
2023-02-20T05:54:29.630Z,101324.13
2023-02-20T05:56:56.046Z,101327.53
2023-02-20T05:59:23.833Z,101325.09
2023-02-20T06:01:55.711Z,101324.63
2023-02-20T06:04:22.237Z,101313.91
2023-02-20T06:06:48.768Z,101298.19
2023-02-20T06:09:16.815Z,101298.91
2023-02-20T06:11:52.465Z,101284.06
2023-02-20T06:14:20.284Z,101284.91
2023-02-20T06:16:47.011Z,101286.34
2023-02-20T06:19:22.441Z,101279.47
2023-02-20T06:21:50.578Z,101272.22
2023-02-20T06:24:17.832Z,101273.31
2023-02-20T06:27:09.779Z,101273.53
2023-02-20T06:29:36.616Z,101270.66
2023-02-20T06:32:03.249Z,101253.97
2023-02-20T06:34:33.262Z,101242.41
2023-02-20T06:37:03.765Z,101231.88
2023-02-20T06:39:31.813Z,101231.66
2023-02-20T06:42:04.614Z,101265.59
2023-02-20T06:44:33.313Z,101292.50
2023-02-20T06:47:00.706Z,101269.31
2023-02-20T06:49:27.103Z,101269.06
2023-02-20T06:51:56.329Z,101243.22
2023-02-20T06:54:22.791Z,101237.66
2023-02-20T06:56:49.204Z,101235.22
2023-02-20T06:59:15.605Z,101244.28
2023-02-20T07:01:45.091Z,101241.84
2023-02-20T07:04:24.962Z,101236.06
2023-02-20T07:06:53.033Z,101243.41
2023-02-20T07:09:20.391Z,101247.97
2023-02-20T07:12:07.918Z,101245.47
2023-02-20T07:18:40.755Z,101223.19
2023-02-20T07:24:53.848Z,101214.34
2023-02-20T07:35:23.445Z,101227.22
2023-02-20T07:38:17.193Z,101230.75
2023-02-20T07:41:09.636Z,101230.56
2023-02-20T07:44:36.254Z,101194.19
2023-02-20T07:47:20.379Z,101199.34
2023-02-20T07:54:11.624Z,101184.94
2023-02-20T07:59:25.381Z,101176.50
2023-02-20T08:01:51.841Z,101176.84
2023-02-20T08:04:18.241Z,101177.69
2023-02-20T08:06:44.642Z,101169.09
2023-02-20T08:09:11.092Z,101165.56
2023-02-20T08:11:37.822Z,101150.03
2023-02-20T08:14:06.161Z,101150.22
2023-02-20T08:16:33.872Z,101146.91
2023-02-20T08:20:24.070Z,101145.56
2023-02-20T08:22:56.573Z,101121.63
2023-02-20T08:25:28.591Z,101128.78
2023-02-20T08:28:16.531Z,101121.13
2023-02-20T08:30:45.249Z,101120.84
2023-02-20T08:33:13.171Z,101113.78
2023-02-20T08:35:44.922Z,101115.13
2023-02-20T08:39:37.006Z,101117.31
2023-02-20T08:46:10.193Z,101094.69
2023-02-20T08:49:17.230Z,101095.78
2023-02-20T08:51:53.114Z,101079.97
2023-02-20T08:54:19.696Z,101076.03
2023-02-20T08:56:46.158Z,101075.31
2023-02-20T08:59:12.650Z,101065.91
2023-02-20T09:01:43.538Z,101064.84
2023-02-20T09:04:10.374Z,101063.19
2023-02-20T09:06:37.046Z,101067.31
2023-02-20T09:09:03.522Z,101040.13
2023-02-20T09:11:30.046Z,101030.75
2023-02-20T09:13:56.517Z,101039.88
2023-02-20T09:16:24.165Z,101021.53
2023-02-20T09:18:51.212Z,101006.59
2023-02-20T09:21:19.327Z,100997.69
2023-02-20T09:23:46.035Z,100992.13
2023-02-20T09:26:12.717Z,100985.75
2023-02-20T09:28:40.501Z,100984.97
2023-02-20T09:31:07.076Z,100975.31
2023-02-20T09:33:33.465Z,100973.91
2023-02-20T09:35:59.884Z,100984.63
2023-02-20T09:38:27.759Z,100970.69
2023-02-20T09:40:58.222Z,100969.94
2023-02-20T09:43:30.449Z,100971.97
2023-02-20T09:46:09.912Z,100956.69
2023-02-20T09:49:07.564Z,100974.06
2023-02-20T09:51:38.359Z,100967.66
2023-02-20T09:54:29.314Z,100960.13
2023-02-20T09:57:03.394Z,100959.38
2023-02-20T09:59:44.323Z,100964.41
2023-02-20T10:02:24.999Z,100963.34
2023-02-20T10:05:01.179Z,100960.66
2023-02-20T10:07:37.166Z,100953.91
2023-02-20T10:10:25.433Z,100956.19
2023-02-20T10:13:03.251Z,100957.41
2023-02-20T10:15:49.001Z,100958.78
2023-02-20T10:18:52.747Z,100944.63
2023-02-20T10:21:31.144Z,100934.06
2023-02-20T10:24:07.057Z,100936.31
2023-02-20T10:26:37.176Z,100927.94
2023-02-20T10:29:26.473Z,100926.63
2023-02-20T10:32:02.030Z,100931.94
2023-02-20T10:34:51.003Z,100919.97
2023-02-20T10:37:21.681Z,100926.66
2023-02-20T10:39:55.589Z,100938.13
2023-02-20T10:42:38.626Z,100935.91
2023-02-20T10:45:12.417Z,100917.50
2023-02-20T10:47:50.425Z,100908.63
2023-02-20T10:50:23.737Z,100910.31
2023-02-20T10:52:57.339Z,100905.28
2023-02-20T10:55:40.918Z,100904.22
2023-02-20T10:58:25.381Z,100881.31
2023-02-20T11:00:56.428Z,100886.91
2023-02-20T11:03:30.380Z,100881.59
2023-02-20T11:06:01.657Z,100886.06
2023-02-20T11:08:28.418Z,100879.38
2023-02-20T11:10:59.552Z,100873.25
2023-02-20T11:13:26.805Z,100878.56
2023-02-20T11:15:56.595Z,100881.06
2023-02-20T11:18:30.586Z,100890.28
2023-02-20T11:20:57.258Z,100869.31
2023-02-20T11:23:41.968Z,100872.41
2023-02-20T11:26:20.628Z,100873.78
2023-02-20T11:29:04.615Z,100859.00
2023-02-20T11:31:31.524Z,100848.13
2023-02-20T11:33:58.222Z,100857.63
2023-02-20T11:36:27.259Z,100858.44
2023-02-20T11:39:01.346Z,100854.00
2023-02-20T11:41:36.871Z,100850.38
2023-02-20T11:44:08.206Z,100841.09
2023-02-20T11:46:34.689Z,100849.75
2023-02-20T11:49:10.447Z,100869.91
2023-02-20T11:51:39.863Z,100853.38
2023-02-20T11:54:18.465Z,100861.78
2023-02-20T11:57:12.285Z,100859.84
2023-02-20T11:59:43.999Z,100852.28
2023-02-20T12:02:22.744Z,100866.84
2023-02-20T12:05:12.319Z,100852.84
2023-02-20T12:07:45.608Z,100853.38
2023-02-20T12:10:23.696Z,100841.09
2023-02-20T12:12:50.218Z,100847.53
2023-02-20T12:15:21.272Z,100850.91
2023-02-20T12:18:07.971Z,100834.94
2023-02-20T12:20:44.435Z,100837.16
2023-02-20T12:23:23.933Z,100842.19
2023-02-20T12:26:05.018Z,100836.59
2023-02-20T12:28:39.292Z,100847.53
2023-02-20T12:31:43.283Z,100844.72
2023-02-20T12:34:31.534Z,100844.41
2023-02-20T12:37:10.354Z,100840.28
2023-02-20T12:40:03.986Z,100839.97
2023-02-20T12:43:06.408Z,100847.25
2023-02-20T12:45:48.266Z,100850.59
2023-02-20T12:48:24.481Z,100863.47
2023-02-20T12:51:06.066Z,100864.88
2023-02-20T12:54:03.763Z,100862.34
2023-02-20T12:56:59.865Z,100856.53
2023-02-20T12:59:44.677Z,100862.66
2023-02-20T13:02:32.505Z,100840.56
2023-02-20T13:05:08.797Z,100857.63
2023-02-20T13:07:42.640Z,100859.84
2023-02-20T13:10:23.995Z,100857.28
2023-02-20T13:12:51.925Z,100866.78
2023-02-20T13:15:37.348Z,100862.03
2023-02-20T13:18:17.946Z,100859.81
2023-02-20T13:20:49.511Z,100869.28
2023-02-20T13:23:15.859Z,100857.00
2023-02-20T13:25:50.234Z,100857.03
2023-02-20T13:28:43.088Z,100853.66
2023-02-20T13:31:18.928Z,100847.22
2023-02-20T13:34:05.738Z,100842.75
2023-02-20T13:36:34.918Z,100838.84
2023-02-20T13:39:16.649Z,100837.16
2023-02-20T13:41:55.372Z,100841.91
2023-02-20T13:44:27.766Z,100842.72
2023-02-20T13:47:00.211Z,100846.94
2023-02-20T13:49:41.844Z,100834.34
2023-02-20T13:52:35.045Z,100847.75
2023-02-20T13:55:05.498Z,100826.25
2023-02-20T13:57:36.209Z,100838.50
2023-02-20T14:00:17.193Z,100837.16
2023-02-20T14:02:43.709Z,100837.69
2023-02-20T14:05:25.342Z,100839.13
2023-02-20T14:07:52.190Z,100839.38
2023-02-20T14:10:23.605Z,100828.22
2023-02-20T14:12:57.632Z,100843.31
2023-02-20T14:15:24.881Z,100839.97
2023-02-20T14:17:53.406Z,100845.84
2023-02-20T14:20:24.640Z,100836.84
2023-02-20T14:23:28.907Z,100841.91
2023-02-20T14:26:12.659Z,100846.09
2023-02-20T14:28:46.206Z,100843.28
2023-02-20T14:31:25.709Z,100851.97
2023-02-20T14:34:06.186Z,100853.66
2023-02-20T14:36:42.602Z,100855.84
2023-02-20T14:39:22.079Z,100850.59
2023-02-20T14:41:57.610Z,100874.63
2023-02-20T14:44:25.017Z,100866.78
2023-02-20T14:46:57.734Z,100864.56
2023-02-20T14:49:31.048Z,100848.06
2023-02-20T14:52:11.502Z,100858.97
2023-02-20T14:54:39.253Z,100838.31
2023-02-20T14:57:06.617Z,100835.50
2023-02-20T14:59:38.645Z,100825.72
2023-02-20T15:02:18.788Z,100825.72
2023-02-20T15:05:12.485Z,100835.78
2023-02-20T15:07:40.397Z,100831.31
2023-02-20T15:10:26.974Z,100824.88
2023-02-20T15:13:05.915Z,100830.78
2023-02-20T15:15:40.932Z,100821.25
2023-02-20T15:18:11.425Z,100836.06
2023-02-20T15:20:44.476Z,100824.31
2023-02-20T15:23:15.840Z,100834.41
2023-02-20T15:25:43.951Z,100831.59
2023-02-20T15:28:25.966Z,100826.00
2023-02-20T15:31:08.894Z,100829.91
2023-02-20T15:33:51.825Z,100823.22
2023-02-20T15:36:24.812Z,100826.56
2023-02-20T15:38:55.195Z,100830.47
2023-02-20T15:41:23.015Z,100816.22
2023-02-20T15:43:51.451Z,100820.13
2023-02-20T15:46:19.647Z,100828.78
2023-02-20T15:48:46.601Z,100827.41
2023-02-20T15:51:17.724Z,100822.09
2023-02-20T15:53:45.941Z,100822.38
2023-02-20T15:56:13.540Z,100817.88
2023-02-20T15:58:42.987Z,100823.78
2023-02-20T16:01:10.305Z,100831.59
2023-02-20T16:03:50.570Z,100823.47
2023-02-20T16:06:19.929Z,100822.38
2023-02-20T16:08:46.879Z,100820.41
2023-02-20T16:11:13.869Z,100803.94
2023-02-20T16:13:44.596Z,100838.84
2023-02-20T16:16:30.967Z,100823.75
2023-02-20T16:18:57.654Z,100840.53
2023-02-20T16:21:25.225Z,100833.81
2023-02-20T16:23:52.748Z,100831.31
2023-02-20T16:26:22.166Z,100822.66
2023-02-20T16:28:54.963Z,100833.28
2023-02-20T16:31:21.523Z,100827.13
2023-02-20T16:33:49.378Z,100824.59
2023-02-20T16:36:24.297Z,100828.53
2023-02-20T16:38:51.282Z,100834.34
2023-02-20T16:41:17.754Z,100816.19
2023-02-20T16:43:44.203Z,100822.91
2023-02-20T16:46:10.728Z,100823.72
2023-02-20T16:48:37.256Z,100820.41
2023-02-20T16:51:06.218Z,100829.88
2023-02-20T16:53:32.904Z,100816.47
2023-02-20T16:55:59.309Z,100837.47
2023-02-20T16:58:25.792Z,100826.53
2023-02-20T17:00:57.626Z,100841.63
2023-02-20T17:03:24.391Z,100829.34
2023-02-20T17:05:58.084Z,100837.47
2023-02-20T17:08:24.573Z,100833.25
2023-02-20T17:10:50.995Z,100844.44
2023-02-20T17:13:17.394Z,100842.19
2023-02-20T17:15:44.680Z,100839.66
2023-02-20T17:18:11.122Z,100842.16
2023-02-20T17:20:37.516Z,100831.84
2023-02-20T17:23:06.477Z,100834.63
2023-02-20T17:25:34.680Z,100834.06
2023-02-20T17:28:01.289Z,100846.06
2023-02-20T17:30:27.797Z,100836.03
2023-02-20T17:32:54.282Z,100842.75
2023-02-20T17:35:20.769Z,100835.75
2023-02-20T17:37:47.218Z,100838.00
2023-02-20T17:40:14.023Z,100829.88
2023-02-20T17:42:41.025Z,100834.91
2023-02-20T17:45:08.124Z,100846.09
2023-02-20T17:47:34.694Z,100858.38
2023-02-20T17:50:01.140Z,100852.22
2023-02-20T17:52:27.594Z,100857.25
2023-02-20T17:54:55.409Z,100854.44
2023-02-20T17:57:23.090Z,100855.28
2023-02-20T17:59:49.918Z,100848.84
2023-02-20T18:02:17.949Z,100864.50
2023-02-20T18:04:44.923Z,100865.59
2023-02-20T18:07:12.031Z,100866.41
2023-02-20T18:09:38.682Z,100863.31
2023-02-20T18:12:05.840Z,100869.22
2023-02-20T18:14:32.499Z,100869.44
2023-02-20T18:16:58.975Z,100869.72
2023-02-20T18:19:25.422Z,100872.22
2023-02-20T18:21:52.775Z,100865.25
2023-02-20T18:24:24.402Z,100874.78
2023-02-20T18:26:52.173Z,100877.84
2023-02-20T18:29:18.667Z,100871.91
2023-02-20T18:31:45.221Z,100877.78
2023-02-20T18:34:12.062Z,100878.94
2023-02-20T18:36:38.794Z,100874.16
2023-02-20T18:39:05.733Z,100876.94
2023-02-20T18:41:32.153Z,100877.78
2023-02-20T18:43:58.556Z,100873.03
2023-02-20T18:46:30.593Z,100864.88
2023-02-20T18:48:58.800Z,100878.25
2023-02-20T18:51:27.709Z,100880.44
2023-02-20T18:53:54.208Z,100859.25
2023-02-20T18:56:21.351Z,100872.63
2023-02-20T18:58:47.792Z,100860.34
2023-02-20T19:01:19.441Z,100865.38
2023-02-20T19:03:51.548Z,100864.25
2023-02-20T19:06:25.499Z,100862.59
2023-02-20T19:08:51.895Z,100855.00
2023-02-20T19:11:18.425Z,100851.72
2023-02-20T19:13:44.841Z,100858.44
2023-02-20T19:16:11.563Z,100855.88
2023-02-20T19:18:49.861Z,100838.56
2023-02-20T19:21:17.291Z,100834.38
2023-02-20T19:23:44.644Z,100839.09
2023-02-20T19:26:11.304Z,100832.78
2023-02-20T19:28:37.960Z,100835.50
2023-02-20T19:31:05.006Z,100834.06
2023-02-20T19:33:31.429Z,100827.41
2023-02-20T19:35:57.841Z,100830.16
2023-02-20T19:38:24.281Z,100826.84
2023-02-20T19:40:51.006Z,100827.38
2023-02-20T19:43:17.400Z,100826.28
2023-02-20T19:45:43.819Z,100818.53
2023-02-20T19:48:10.283Z,100821.63
2023-02-20T19:50:37.361Z,100823.88
2023-02-20T19:53:03.778Z,100821.63
2023-02-20T19:55:31.648Z,100815.72
2023-02-20T19:57:59.764Z,100809.84
2023-02-20T20:00:28.606Z,100816.34
2023-02-20T20:02:57.550Z,100798.47
2023-02-20T20:05:24.546Z,100802.41
2023-02-20T20:07:51.234Z,100804.63
2023-02-20T20:10:21.521Z,100787.06
2023-02-20T20:12:48.007Z,100794.03
2023-02-20T20:15:18.367Z,100791.00
2023-02-20T20:17:49.256Z,100800.25
2023-02-20T20:20:17.039Z,100801.59
2023-02-20T20:22:43.500Z,100813.06
2023-02-20T20:25:11.839Z,100799.13
2023-02-20T20:27:38.272Z,100787.38
2023-02-20T20:30:06.491Z,100805.53
2023-02-20T20:32:33.496Z,100804.72
2023-02-20T20:35:00.328Z,100803.59
2023-02-20T20:37:29.894Z,100811.97
2023-02-20T20:39:58.264Z,100815.06
2023-02-20T20:42:26.346Z,100813.66
2023-02-20T20:44:54.203Z,100813.38
2023-02-20T20:47:21.372Z,100804.41
2023-02-20T20:49:47.772Z,100802.78
2023-02-20T20:52:14.172Z,100801.09
2023-02-20T20:54:40.582Z,100798.59
2023-02-20T20:57:07.049Z,100793.28
2023-02-20T20:59:33.487Z,100795.25
2023-02-20T21:01:59.888Z,100801.94
2023-02-20T21:04:26.836Z,100787.16
2023-02-20T21:06:53.226Z,100784.66
2023-02-20T21:09:19.651Z,100783.25
2023-02-20T21:11:46.094Z,100779.06
2023-02-20T21:14:12.518Z,100784.09
2023-02-20T21:16:38.939Z,100781.56
2023-02-20T21:19:05.695Z,100785.16
2023-02-20T21:21:32.478Z,100772.59
2023-02-20T21:23:59.281Z,100768.69
2023-02-20T21:26:25.872Z,100774.28
2023-02-20T21:28:55.156Z,100769.81
2023-02-20T21:31:21.880Z,100770.66
2023-02-20T21:33:55.521Z,100774.88
2023-02-20T21:36:22.388Z,100770.66
2023-02-20T21:38:48.816Z,100770.38
2023-02-20T21:41:40.398Z,100774.84
2023-02-20T21:44:26.409Z,100768.41
2023-02-20T21:46:55.473Z,100760.34
2023-02-20T21:49:22.189Z,100776.81
2023-02-20T21:51:48.820Z,100778.50
2023-02-20T21:54:17.376Z,100776.78
2023-02-20T21:56:44.406Z,100779.06
2023-02-20T21:59:10.781Z,100779.88
2023-02-20T22:01:39.041Z,100777.38
2023-02-20T22:04:07.265Z,100779.63
2023-02-20T22:06:34.064Z,100785.19
2023-02-20T22:09:19.445Z,100787.69
2023-02-20T22:12:05.048Z,100777.91
2023-02-20T22:14:50.295Z,100779.31
2023-02-20T22:17:35.357Z,100773.72
2023-02-20T22:20:20.766Z,100777.34
2023-02-20T22:23:05.724Z,100773.16
2023-02-20T22:25:50.711Z,100770.09
2023-02-20T22:28:35.705Z,100756.69
2023-02-20T22:31:22.718Z,100766.19
2023-02-20T22:34:07.779Z,100763.97
2023-02-20T22:36:53.265Z,100760.91
2023-02-20T22:39:38.614Z,100758.38
2023-02-20T22:42:34.239Z,100765.94
2023-02-20T22:45:19.804Z,100762.00
2023-02-20T22:48:04.590Z,100764.53
2023-02-20T22:50:49.467Z,100759.78
2023-02-20T22:53:34.351Z,100761.44
2023-02-20T22:56:19.202Z,100755.84
2023-02-20T22:59:03.996Z,100769.28
2023-02-20T23:01:48.998Z,100779.84
2023-02-20T23:04:34.116Z,100782.38
2023-02-20T23:07:19.047Z,100780.44
2023-02-20T23:10:03.912Z,100787.97
2023-02-20T23:12:48.859Z,100788.81
2023-02-20T23:15:34.175Z,100786.56
2023-02-20T23:18:21.956Z,100789.66
2023-02-20T23:21:06.909Z,100794.66
2023-02-20T23:23:51.876Z,100788.78
2023-02-20T23:26:37.180Z,100796.03
2023-02-20T23:29:22.043Z,100793.50
2023-02-20T23:32:07.011Z,100799.94
2023-02-20T23:34:52.283Z,100797.44
2023-02-20T23:37:37.187Z,100790.69
2023-02-20T23:40:30.827Z,100791.28
2023-02-20T23:43:20.962Z,100796.56
2023-02-20T23:46:06.455Z,100801.84
2023-02-20T23:48:51.595Z,100794.34
2023-02-20T23:51:36.625Z,100792.94
2023-02-20T23:54:22.114Z,100791.56
2023-02-20T23:57:07.076Z,100790.69
2023-02-20T23:59:52.102Z,100788.78
